Time;durP1;ratioP1;P1;durP2;ratioP2;P2;SDS_P1;SDS_P2;PMS_P1;PMS_P2;Temp;Humidity;BMP_temperature;BMP_pressure;BME280_temperature;BME280_humidity;BME280_pressure;Samples;Min_cycle;Max_cycle;Signal;HPM_P1;HPM_P2
2021/09/10 08:53:42;;;;;;;5.25;4.70;;;20.60;99.90;;;;;;5090918;28;20652;-69
2021/09/10 08:56:08;;;;;;;7.05;5.10;;;20.70;99.90;;;;;;5090881;28;20617;-70
2021/09/10 08:58:34;;;;;;;5.00;4.60;;;20.70;99.90;;;;;;5090821;28;20175;-70
2021/09/10 09:01:00;;;;;;;6.15;5.65;;;20.80;99.90;;;;;;5090723;28;20624;-69
2021/09/10 09:03:30;;;;;;;5.70;5.10;;;20.90;99.90;;;;;;5090658;28;20171;-68
2021/09/10 09:05:56;;;;;;;4.30;3.97;;;21.00;99.90;;;;;;5090665;28;20521;-67
2021/09/10 09:08:22;;;;;;;4.65;4.25;;;21.00;99.90;;;;;;5090615;28;20172;-68
2021/09/10 09:11:04;;;;;;;8.63;5.15;;;21.00;99.90;;;;;;5090519;28;20246;-68
2021/09/10 09:13:32;;;;;;;4.63;4.35;;;21.00;99.90;;;;;;5090661;28;20195;-68
2021/09/10 09:16:15;;;;;;;4.30;3.90;;;21.10;99.90;;;;;;5090445;28;20250;-68
2021/09/10 09:18:50;;;;;;;5.07;4.35;;;21.20;99.90;;;;;;5090418;28;20208;-68
2021/09/10 09:21:36;;;;;;;5.47;3.30;;;21.30;99.90;;;;;;5090373;28;20167;-68
2021/09/10 09:24:16;;;;;;;4.65;3.92;;;21.40;99.90;;;;;;5090369;28;20261;-67
2021/09/10 09:26:43;;;;;;;4.60;4.18;;;21.50;99.90;;;;;;5090271;28;20163;-68
2021/09/10 09:29:15;;;;;;;5.00;3.58;;;21.50;99.90;;;;;;5090220;28;20217;-67
2021/09/10 09:31:42;;;;;;;4.68;3.35;;;21.60;99.90;;;;;;5090105;28;20191;-68
2021/09/10 09:34:10;;;;;;;4.35;2.97;;;21.60;99.90;;;;;;5090150;28;20682;-68
2021/09/10 09:36:53;;;;;;;4.38;3.90;;;21.50;99.90;;;;;;5090035;28;20176;-68
2021/09/10 09:39:19;;;;;;;3.47;3.25;;;21.60;99.90;;;;;;5090021;28;20170;-68
2021/09/10 09:41:44;;;;;;;4.03;3.72;;;21.50;99.90;;;;;;5089997;28;20199;-72
2021/09/10 09:44:14;;;;;;;3.50;3.20;;;21.60;99.90;;;;;;5088714;28;20168;-75
2021/09/10 09:46:41;;;;;;;10.00;4.72;;;21.60;99.90;;;;;;5088625;28;20179;-74
2021/09/10 09:49:09;;;;;;;4.32;4.03;;;21.60;99.90;;;;;;5089744;28;20728;-74
2021/09/10 09:51:35;;;;;;;4.85;3.92;;;21.60;99.90;;;;;;5089554;28;20360;-74
2021/09/10 09:54:01;;;;;;;8.45;4.32;;;21.60;99.90;;;;;;5088503;28;20171;-75
2021/09/10 09:56:28;;;;;;;4.43;4.13;;;21.70;99.90;;;;;;5089648;28;20504;-74
2021/09/10 09:58:55;;;;;;;4.43;4.03;;;21.70;99.90;;;;;;5089574;28;20187;-74
2021/09/10 10:01:20;;;;;;;6.22;4.38;;;21.70;99.90;;;;;;5089611;28;20159;-74
2021/09/10 10:03:47;;;;;;;5.82;4.53;;;21.70;99.90;;;;;;5083251;28;20664;-74
2021/09/10 10:06:20;;;;;;;4.60;4.25;;;21.70;99.90;;;;;;5076009;28;20626;-68
2021/09/10 10:09:02;;;;;;;5.07;4.60;;;21.70;99.90;;;;;;5075985;28;20163;-67
2021/09/10 10:11:37;;;;;;;8.80;8.02;;;21.90;99.90;;;;;;5075896;28;20167;-68
2021/09/10 10:14:06;;;;;;;7.63;7.03;;;22.00;99.90;;;;;;5074664;28;20183;-72
2021/09/10 10:16:40;;;;;;;5.57;5.28;;;22.10;99.90;;;;;;5075828;28;20621;-72
2021/09/10 10:19:38;;;;;;;6.38;5.72;;;22.20;99.90;;;;;;5075810;28;20647;-71
2021/09/10 10:22:06;;;;;;;8.07;5.15;;;22.20;99.90;;;;;;5072345;28;20180;-74
2021/09/10 10:24:43;;;;;;;7.45;5.45;;;22.40;99.90;;;;;;5075731;28;20167;-74
2021/09/10 10:27:43;;;;;;;4.55;4.15;;;22.40;99.90;;;;;;5075630;28;20179;-74
2021/09/10 10:30:15;;;;;;;5.30;4.82;;;22.60;99.90;;;;;;5074254;28;20190;-74
2021/09/10 10:32:48;;;;;;;7.28;5.15;;;22.70;99.90;;;;;;5075479;28;20226;-74
2021/09/10 10:35:30;;;;;;;4.97;4.57;;;22.70;99.90;;;;;;5075566;28;20160;-74
2021/09/10 10:38:01;;;;;;;5.78;4.45;;;22.80;99.90;;;;;;5074262;28;20225;-74
2021/09/10 10:40:35;;;;;;;5.80;4.03;;;22.80;99.90;;;;;;5075398;28;20218;-74
2021/09/10 10:43:04;;;;;;;4.40;4.03;;;22.80;99.90;;;;;;5075258;28;20195;-74
2021/09/10 10:46:08;;;;;;;5.22;4.75;;;22.90;99.90;;;;;;5075166;28;20171;-75
2021/09/10 10:48:34;;;;;;;4.03;3.72;;;23.00;99.90;;;;;;5075233;28;20167;-74
2021/09/10 10:51:13;;;;;;;4.07;3.88;;;22.90;99.90;;;;;;5075207;28;20179;-80
2021/09/10 10:53:44;;;;;;;4.80;4.28;;;22.80;99.90;;;;;;5073690;28;20223;-73
2021/09/10 10:56:40;;;;;;;6.22;3.63;;;22.60;99.90;;;;;;5075085;28;20172;-74
2021/09/10 10:59:12;;;;;;;4.88;4.10;;;22.40;99.90;;;;;;5074901;28;20191;-72
2021/09/10 11:02:17;;;;;;;4.28;3.88;;;22.30;99.90;;;;;;5074041;28;20703;-73
2021/09/10 11:05:13;;;;;;;6.65;4.78;;;22.10;99.90;;;;;;5074939;28;20191;-72
2021/09/10 11:07:39;;;;;;;5.38;4.88;;;22.00;99.90;;;;;;5074446;28;20179;-75
2021/09/10 11:10:16;;;;;;;4.85;4.55;;;21.90;99.90;;;;;;5074839;28;20178;-75
2021/09/10 11:12:45;;;;;;;6.55;5.53;;;21.70;99.90;;;;;;5074763;28;20199;-71
2021/09/10 11:15:20;;;;;;;6.30;5.10;;;21.60;99.90;;;;;;5073818;28;20164;-74
2021/09/10 11:18:01;;;;;;;5.90;5.20;;;21.50;99.90;;;;;;5074654;28;20168;-73
2021/09/10 11:20:34;;;;;;;6.95;4.25;;;21.40;99.90;;;;;;5074619;28;20160;-74
2021/09/10 11:23:00;;;;;;;4.97;4.50;;;21.30;99.90;;;;;;5074699;28;20187;-74
2021/09/10 11:25:26;;;;;;;6.40;4.85;;;21.20;99.90;;;;;;5074538;28;20530;-74
2021/09/10 11:27:53;;;;;;;5.07;4.57;;;21.10;99.90;;;;;;5074518;28;20243;-75
2021/09/10 11:30:19;;;;;;;6.95;5.00;;;21.10;99.90;;;;;;5074371;28;20250;-75
2021/09/10 11:32:45;;;;;;;13.25;5.63;;;21.10;99.90;;;;;;5074289;28;20305;-73
2021/09/10 11:35:20;;;;;;;5.65;5.30;;;21.10;99.90;;;;;;5074324;28;20172;-74
2021/09/10 11:37:53;;;;;;;5.85;5.20;;;21.10;99.90;;;;;;5074262;28;20561;-74
2021/09/10 11:40:58;;;;;;;5.63;5.32;;;21.00;99.90;;;;;;5074173;28;20178;-74
2021/09/10 11:43:31;;;;;;;5.45;4.95;;;21.10;99.90;;;;;;5073942;28;20190;-74
2021/09/10 11:46:09;;;;;;;6.30;5.15;;;21.20;99.90;;;;;;5072829;28;20190;-75
2021/09/10 11:48:38;;;;;;;6.25;4.88;;;21.30;99.90;;;;;;5074063;28;20175;-75
2021/09/10 11:51:12;;;;;;;3.90;3.70;;;21.40;99.90;;;;;;5074025;28;20172;-75
2021/09/10 11:53:47;;;;;;;4.38;3.58;;;21.50;99.90;;;;;;5073767;28;20680;-74
2021/09/10 11:56:28;;;;;;;3.33;3.13;;;21.70;99.90;;;;;;5073942;28;20175;-75
2021/09/10 11:58:54;;;;;;;2.80;2.60;;;21.80;99.90;;;;;;5073938;28;20164;-78
2021/09/10 12:01:30;;;;;;;2.60;2.50;;;21.90;99.90;;;;;;5072594;28;20259;-69
2021/09/10 12:04:05;;;;;;;1.80;1.70;;;22.00;99.90;;;;;;5072472;28;20271;-73
2021/09/10 12:06:45;;;;;;;1.90;1.80;;;22.10;99.90;;;;;;5073754;28;20220;-75
2021/09/10 12:09:15;;;;;;;2.30;2.20;;;22.10;99.90;;;;;;5073660;28;20246;-74
2021/09/10 12:12:06;;;;;;;2.05;1.95;;;22.20;99.90;;;;;;5073577;28;20200;-73
2021/09/10 12:14:32;;;;;;;2.17;2.08;;;22.10;99.90;;;;;;5073564;28;20199;-74
2021/09/10 12:17:16;;;;;;;2.35;2.13;;;22.20;99.90;;;;;;5073552;28;20160;-78
2021/09/10 12:19:50;;;;;;;2.83;2.33;;;22.30;99.90;;;;;;5073486;28;20168;-80
2021/09/10 12:22:32;;;;;;;2.13;2.05;;;22.40;99.90;;;;;;5072195;28;20171;-78
2021/09/10 12:25:18;;;;;;;3.70;1.63;;;22.50;99.90;;;;;;5073460;28;20176;-80
2021/09/10 12:27:44;;;;;;;1.90;1.80;;;22.50;99.90;;;;;;5073198;28;20175;-79
2021/09/10 12:30:11;;;;;;;2.15;2.05;;;22.60;99.90;;;;;;5073442;28;20164;-78
2021/09/10 12:32:37;;;;;;;1.80;1.70;;;22.70;99.90;;;;;;5073267;28;20188;-76
2021/09/10 12:35:03;;;;;;;2.50;2.30;;;22.80;99.90;;;;;;5073267;28;20182;-76
2021/09/10 12:37:29;;;;;;;2.03;1.92;;;22.80;99.90;;;;;;5073356;28;20160;-71
2021/09/10 12:39:55;;;;;;;4.45;1.92;;;22.90;99.90;;;;;;5073331;28;20178;-73
2021/09/10 12:42:21;;;;;;;2.05;1.50;;;22.90;99.90;;;;;;5071987;28;20180;-73
2021/09/10 12:44:46;;;;;;;1.65;1.65;;;22.90;99.90;;;;;;5073219;28;20594;-73
2021/09/10 12:47:12;;;;;;;1.90;1.77;;;23.00;99.90;;;;;;5073253;28;20263;-73
2021/09/10 12:49:38;;;;;;;1.77;1.65;;;23.10;99.90;;;;;;5073114;28;20176;-73
2021/09/10 12:52:04;;;;;;;1.90;1.70;;;23.30;99.90;;;;;;5072947;28;20302;-73
2021/09/10 12:54:32;;;;;;;2.58;2.30;;;23.30;99.90;;;;;;5073265;28;20585;-72
2021/09/10 12:56:58;;;;;;;1.65;1.55;;;23.40;99.90;;;;;;5073190;28;20164;-73
2021/09/10 12:59:24;;;;;;;1.60;1.50;;;23.50;99.90;;;;;;5073118;28;20246;-73
2021/09/10 13:01:49;;;;;;;2.35;1.90;;;23.40;99.90;;;;;;5073028;28;20170;-73
2021/09/10 13:04:16;;;;;;;2.13;2.03;;;23.40;99.90;;;;;;5072868;28;20535;-74
2021/09/10 13:06:41;;;;;;;1.63;1.52;;;23.40;99.90;;;;;;5073067;28;20309;-74
2021/09/10 13:09:07;;;;;;;3.33;1.42;;;23.40;99.90;;;;;;5073069;28;20204;-74
2021/09/10 13:11:33;;;;;;;1.60;1.50;;;23.60;99.90;;;;;;5072956;28;20164;-74
2021/09/10 13:14:00;;;;;;;2.45;1.70;;;23.70;99.90;;;;;;5072983;28;20164;-72
2021/09/10 13:16:26;;;;;;;1.98;1.63;;;23.80;99.90;;;;;;5072887;28;20175;-73
2021/09/10 13:18:51;;;;;;;1.75;1.70;;;23.90;99.90;;;;;;5071496;28;20258;-73
2021/09/10 13:21:17;;;;;;;1.52;1.50;;;23.90;99.90;;;;;;5072759;28;20249;-74
2021/09/10 13:23:43;;;;;;;2.13;2.03;;;23.90;99.90;;;;;;5071465;28;20180;-75
2021/09/10 13:26:08;;;;;;;2.00;1.90;;;24.00;99.90;;;;;;5072816;28;20183;-76
2021/09/10 13:28:34;;;;;;;2.28;2.17;;;23.90;99.90;;;;;;5072836;28;20191;-75
2021/09/10 13:31:00;;;;;;;2.20;2.03;;;23.70;99.90;;;;;;5072762;28;20190;-77
2021/09/10 13:33:25;;;;;;;2.03;1.60;;;23.60;99.90;;;;;;5072596;28;20209;-76
2021/09/10 13:35:51;;;;;;;1.80;1.70;;;23.40;99.90;;;;;;5072706;28;20168;-77
2021/09/10 13:38:16;;;;;;;3.28;1.70;;;23.40;99.90;;;;;;5071662;28;20221;-80
2021/09/10 13:40:43;;;;;;;2.30;1.58;;;23.30;99.90;;;;;;5076515;28;20160;-72
2021/09/10 13:43:10;;;;;;;2.15;1.70;;;23.20;99.90;;;;;;5076412;28;20250;-73
2021/09/10 13:45:36;;;;;;;1.55;1.55;;;23.10;99.90;;;;;;5076371;28;20195;-73
2021/09/10 13:48:02;;;;;;;4.10;2.20;;;23.10;99.90;;;;;;5075089;28;20171;-73
2021/09/10 13:50:28;;;;;;;2.53;2.40;;;23.10;99.90;;;;;;5076290;28;20179;-73
2021/09/10 13:52:53;;;;;;;2.00;1.77;;;23.00;99.90;;;;;;5076060;28;20298;-68
2021/09/10 13:55:19;;;;;;;2.05;1.30;;;22.80;99.90;;;;;;5076189;28;20164;-68
2021/09/10 13:57:45;;;;;;;1.40;1.40;;;22.40;99.90;;;;;;5076233;28;20290;-68
2021/09/10 14:00:11;;;;;;;1.10;1.10;;;22.10;99.90;;;;;;5076172;28;20187;-67
2021/09/10 14:02:36;;;;;;;1.48;1.40;;;21.80;99.90;;;;;;5076132;28;20621;-67
2021/09/10 14:05:03;;;;;;;1.60;1.50;;;21.50;99.90;;;;;;5076083;28;20317;-67
2021/09/10 14:07:29;;;;;;;1.58;1.48;;;21.40;99.90;;;;;;5076072;28;20190;-67
2021/09/10 14:09:54;;;;;;;1.83;1.33;;;21.40;99.90;;;;;;5076049;28;20637;-67
2021/09/10 14:12:20;;;;;;;2.22;2.13;;;21.40;99.90;;;;;;5075858;28;20294;-67
2021/09/10 14:14:46;;;;;;;1.77;1.60;;;21.40;99.90;;;;;;5074830;28;20164;-67
2021/09/10 14:17:11;;;;;;;1.70;1.60;;;21.60;99.90;;;;;;5075875;28;20243;-67
2021/09/10 14:19:37;;;;;;;1.30;1.30;;;21.60;99.90;;;;;;5075867;28;20247;-67
2021/09/10 14:22:02;;;;;;;1.52;1.48;;;21.50;99.90;;;;;;5075834;28;20175;-67
2021/09/10 14:24:28;;;;;;;1.58;1.55;;;21.50;99.90;;;;;;5075768;28;20661;-67
2021/09/10 14:26:54;;;;;;;3.05;2.05;;;21.60;99.90;;;;;;5075651;28;20178;-67
2021/09/10 14:29:19;;;;;;;2.05;1.95;;;21.50;99.90;;;;;;5075634;28;20203;-67
2021/09/10 14:31:45;;;;;;;2.58;1.98;;;21.50;99.90;;;;;;5074329;28;20172;-67
2021/09/10 14:34:11;;;;;;;2.75;2.00;;;21.50;99.90;;;;;;5075580;28;20164;-67
2021/09/10 14:36:37;;;;;;;2.63;2.53;;;21.50;99.90;;;;;;5075233;28;20156;-67
2021/09/10 14:39:03;;;;;;;3.55;3.25;;;21.40;99.90;;;;;;5075482;28;20213;-67
2021/09/10 14:41:29;;;;;;;3.53;2.83;;;21.40;99.90;;;;;;5075481;28;20168;-67
2021/09/10 14:43:55;;;;;;;2.90;2.70;;;21.40;99.90;;;;;;5075354;28;20175;-67
2021/09/10 14:46:21;;;;;;;4.03;3.60;;;21.40;99.90;;;;;;5075384;28;20166;-67
2021/09/10 14:48:48;;;;;;;3.10;3.00;;;21.40;99.90;;;;;;5075292;28;20226;-67
2021/09/10 14:51:13;;;;;;;2.97;2.88;;;21.40;99.90;;;;;;5075119;28;20625;-67
2021/09/10 14:53:39;;;;;;;3.17;2.97;;;21.50;99.90;;;;;;5075056;28;20219;-67
2021/09/10 14:56:05;;;;;;;4.40;3.30;;;21.40;99.90;;;;;;5075155;28;20255;-67
2021/09/10 14:58:31;;;;;;;4.38;3.50;;;21.40;99.90;;;;;;5073776;28;20163;-67
2021/09/10 15:00:59;;;;;;;3.70;3.45;;;21.40;99.90;;;;;;5075025;28;20229;-67
2021/09/10 15:03:25;;;;;;;3.97;2.90;;;21.40;99.90;;;;;;5074915;28;20758;-67
2021/09/10 15:05:51;;;;;;;3.30;3.00;;;21.30;99.90;;;;;;5074926;28;20255;-67
2021/09/10 15:08:16;;;;;;;4.18;3.78;;;21.20;99.90;;;;;;5074789;28;20256;-67
2021/09/10 15:10:42;;;;;;;3.83;3.53;;;21.00;99.90;;;;;;5074859;28;20702;-67
2021/09/10 15:13:08;;;;;;;9.27;4.65;;;20.80;99.90;;;;;;5074601;28;20223;-67
2021/09/10 15:15:34;;;;;;;7.72;4.65;;;20.70;99.90;;;;;;5074826;28;20194;-67
2021/09/10 15:18:00;;;;;;;11.32;5.72;;;20.60;99.90;;;;;;5074705;28;20167;-67
2021/09/10 15:20:25;;;;;;;5.90;5.28;;;20.40;99.90;;;;;;5074639;28;20511;-67
2021/09/10 15:22:51;;;;;;;7.00;4.82;;;20.30;99.90;;;;;;5074663;28;20304;-67
2021/09/10 15:25:17;;;;;;;5.80;5.32;;;20.40;99.90;;;;;;5074839;28;20193;-67
2021/09/10 15:27:43;;;;;;;8.32;6.55;;;20.70;99.90;;;;;;5074445;28;20194;-67
2021/09/10 15:30:09;;;;;;;9.00;6.68;;;21.00;99.90;;;;;;5074451;28;20253;-67
2021/09/10 15:32:35;;;;;;;5.93;5.47;;;21.30;99.90;;;;;;5074291;28;20257;-67
2021/09/10 15:35:03;;;;;;;5.20;4.78;;;21.50;99.90;;;;;;5074342;28;20168;-67
2021/09/10 15:37:29;;;;;;;6.95;6.32;;;21.70;99.90;;;;;;5074299;28;20175;-67
2021/09/10 15:39:55;;;;;;;5.53;4.28;;;21.90;99.90;;;;;;5074293;28;20168;-67
2021/09/10 15:42:20;;;;;;;3.90;3.60;;;21.90;99.90;;;;;;5074103;28;20168;-67
2021/09/10 15:44:46;;;;;;;3.55;3.13;;;22.00;99.90;;;;;;5074148;28;20293;-67
2021/09/10 15:47:12;;;;;;;3.88;2.90;;;22.00;99.90;;;;;;5074078;28;20214;-67
2021/09/10 15:49:37;;;;;;;4.10;3.85;;;21.90;99.90;;;;;;5074033;28;20172;-67
2021/09/10 15:52:04;;;;;;;3.08;2.83;;;21.90;99.90;;;;;;5074067;28;20348;-67
2021/09/10 15:54:31;;;;;;;2.20;2.10;;;21.90;99.90;;;;;;5073995;28;20160;-67
2021/09/10 15:56:58;;;;;;;5.28;2.40;;;21.90;99.90;;;;;;5074252;28;20163;-67
2021/09/10 15:59:26;;;;;;;4.13;3.55;;;22.00;99.90;;;;;;5074350;28;20236;-67
2021/09/10 16:01:51;;;;;;;2.70;2.50;;;22.20;99.90;;;;;;5073600;28;20168;-67
2021/09/10 16:04:17;;;;;;;2.90;2.70;;;22.40;99.90;;;;;;5073747;28;20612;-67
2021/09/10 16:06:42;;;;;;;3.17;2.83;;;22.60;99.90;;;;;;5073774;28;20170;-67
2021/09/10 16:09:09;;;;;;;3.05;2.67;;;22.70;99.90;;;;;;5073767;28;20174;-67
2021/09/10 16:11:35;;;;;;;2.85;2.75;;;22.70;99.90;;;;;;5073600;28;20172;-67
2021/09/10 16:14:01;;;;;;;3.15;2.95;;;22.50;99.90;;;;;;5073683;28;20171;-67
2021/09/10 16:16:26;;;;;;;3.13;2.85;;;22.50;99.90;;;;;;5073664;28;20164;-67
2021/09/10 16:18:52;;;;;;;4.03;2.60;;;22.30;99.90;;;;;;5073626;28;20196;-67
2021/09/10 16:21:18;;;;;;;2.95;2.65;;;22.30;99.90;;;;;;5073614;28;20168;-67
2021/09/10 16:23:43;;;;;;;2.90;2.80;;;22.40;99.90;;;;;;5073618;28;20633;-67
2021/09/10 16:26:09;;;;;;;2.42;2.22;;;22.40;99.90;;;;;;5073415;28;20174;-67
2021/09/10 16:28:34;;;;;;;2.60;2.42;;;22.30;99.90;;;;;;5073496;28;20577;-67
2021/09/10 16:31:00;;;;;;;2.85;2.63;;;22.20;99.90;;;;;;5073429;28;20168;-67
2021/09/10 16:33:26;;;;;;;2.40;2.30;;;21.90;99.90;;;;;;5073364;28;20199;-68
2021/09/10 16:35:51;;;;;;;2.50;2.30;;;21.80;99.90;;;;;;5073406;28;20175;-67
2021/09/10 16:38:17;;;;;;;2.58;2.47;;;21.60;99.90;;;;;;5073458;28;20206;-67
2021/09/10 16:40:43;;;;;;;2.88;2.67;;;21.60;99.90;;;;;;5073268;28;20179;-67
2021/09/10 16:43:08;;;;;;;2.92;2.60;;;21.40;99.90;;;;;;5073294;28;20176;-67
2021/09/10 16:45:34;;;;;;;2.95;2.65;;;21.40;99.90;;;;;;5073513;28;20171;-67
2021/09/10 16:48:00;;;;;;;2.72;2.60;;;21.30;99.90;;;;;;5073294;28;20172;-67
2021/09/10 16:50:26;;;;;;;3.10;2.90;;;21.20;99.90;;;;;;5073214;28;20183;-67
2021/09/10 16:52:52;;;;;;;3.72;3.13;;;21.20;99.90;;;;;;5073017;28;20230;-67
2021/09/10 16:55:17;;;;;;;3.17;2.97;;;21.10;99.90;;;;;;5073107;28;20171;-67
2021/09/10 16:57:43;;;;;;;3.00;2.90;;;21.10;99.90;;;;;;5073187;28;20539;-67
2021/09/10 17:00:09;;;;;;;3.50;3.20;;;21.10;99.90;;;;;;5073147;28;20183;-67
2021/09/10 17:02:35;;;;;;;3.70;3.40;;;21.00;99.90;;;;;;5073127;28;20172;-67
2021/09/10 17:05:01;;;;;;;3.90;3.60;;;20.90;99.90;;;;;;5071729;28;20656;-67
2021/09/10 17:07:28;;;;;;;3.50;3.22;;;20.90;99.90;;;;;;5073119;28;20160;-67
2021/09/10 17:09:54;;;;;;;3.40;3.10;;;20.80;99.90;;;;;;5073118;28;20195;-67
2021/09/10 17:12:20;;;;;;;4.28;2.72;;;20.80;99.90;;;;;;5072982;28;20237;-67
2021/09/10 17:14:46;;;;;;;2.85;2.75;;;20.80;99.90;;;;;;5075704;28;20164;-67
2021/09/10 17:17:11;;;;;;;3.15;2.97;;;20.80;99.90;;;;;;5077005;28;20583;-67
2021/09/10 17:19:37;;;;;;;3.72;3.42;;;20.70;99.90;;;;;;5076967;28;20243;-67
2021/09/10 17:22:03;;;;;;;4.15;3.22;;;20.70;99.90;;;;;;5076991;28;20178;-67
2021/09/10 17:24:29;;;;;;;3.17;2.97;;;20.70;99.90;;;;;;5076830;28;20164;-67
2021/09/10 17:26:55;;;;;;;3.58;3.28;;;20.70;99.90;;;;;;5076836;28;20193;-67
2021/09/10 17:29:20;;;;;;;3.10;2.90;;;20.60;99.90;;;;;;5076771;28;20171;-67
2021/09/10 17:31:46;;;;;;;3.72;3.42;;;20.60;99.90;;;;;;5076693;28;20168;-67
2021/09/10 17:34:12;;;;;;;4.30;3.22;;;20.60;99.90;;;;;;5076704;28;20175;-67
2021/09/10 17:36:38;;;;;;;4.38;3.53;;;20.50;99.90;;;;;;5076676;28;20172;-67
2021/09/10 17:39:04;;;;;;;4.15;3.83;;;20.50;99.90;;;;;;5076507;28;20164;-67
2021/09/10 17:41:29;;;;;;;4.13;3.83;;;20.40;99.90;;;;;;5076784;28;20255;-67
2021/09/10 17:43:55;;;;;;;5.28;4.20;;;20.30;99.90;;;;;;5076542;28;20254;-67
2021/09/10 17:46:20;;;;;;;3.97;3.60;;;20.20;99.90;;;;;;5076478;28;20669;-67
2021/09/10 17:48:46;;;;;;;4.05;3.75;;;20.10;99.90;;;;;;5076376;28;20233;-67
